Lucerne, Indiana
Current Conditions -  °F | °C
As of 7:35 AM on Monday 20 Oct 2014 (Local Time) from KGGP Reporting Station
Overcast Overcast  
Wind Chill: 50°   Ceiling: 6000
Heat Index: 50°   Visibility: 10mi
Dew Point: 43°   Wind: 9mph
Humidity: 76%   Direction: 210°SSW
Pressure: 29.88"   Gusts: NA
Location:  40.87°N, 86.4°W
Report Text: KGGP 201135Z AUTO 21008KT 10SM OVC060 10/06 A2988 RMK AO2
Loading
Personal Weather Stations






























Interactive Weather Map
Tropical Storm Tracking
New forecast layout! Learn more

10-Day Weather Forecast

Advertisements
Track Severe Weather on mobile